Time;durP1;ratioP1;P1;durP2;ratioP2;P2;SDS_P1;SDS_P2;PMS_P1;PMS_P2;Temp;Humidity;BMP_temperature;BMP_pressure;BME280_temperature;BME280_humidity;BME280_pressure;Samples;Min_cycle;Max_cycle;Signal;HPM_P1;HPM_P2
2022/12/09 00:02:15;;;;;;;23.00;21.03;;;-0.70;99.90;;;;;;6242159;23;20440;-74
2022/12/09 00:04:41;;;;;;;24.60;22.17;;;-0.70;99.90;;;;;;6242266;23;20781;-74
2022/12/09 00:07:08;;;;;;;22.83;21.00;;;-0.70;99.90;;;;;;6242332;23;20411;-73
2022/12/09 00:09:35;;;;;;;23.10;21.00;;;-0.60;99.90;;;;;;6242359;23;20446;-74
2022/12/09 00:12:01;;;;;;;24.13;22.07;;;-0.60;99.90;;;;;;6242544;22;20413;-74
2022/12/09 00:14:28;;;;;;;23.17;21.23;;;-0.80;99.90;;;;;;6241831;23;20734;-74
2022/12/09 00:16:55;;;;;;;24.07;22.07;;;-0.80;99.90;;;;;;6242174;23;20410;-74
2022/12/09 00:19:23;;;;;;;28.47;22.43;;;-0.80;99.90;;;;;;6242070;23;20400;-74
2022/12/09 00:21:50;;;;;;;24.07;21.90;;;-0.80;99.90;;;;;;6242299;23;20413;-78
2022/12/09 00:24:16;;;;;;;23.47;21.17;;;-0.90;99.90;;;;;;6242117;23;20463;-74
2022/12/09 00:26:43;;;;;;;23.33;21.43;;;-0.90;99.90;;;;;;6238886;23;20441;-73
2022/12/09 00:29:11;;;;;;;24.53;22.33;;;-0.90;99.90;;;;;;6240432;23;20439;-71
2022/12/09 00:31:38;;;;;;;22.23;20.43;;;-1.00;99.90;;;;;;6241125;23;20409;-72
2022/12/09 00:34:08;;;;;;;23.60;21.60;;;-1.10;99.90;;;;;;6241795;23;20404;-72
2022/12/09 00:36:36;;;;;;;23.03;21.23;;;-1.10;99.90;;;;;;6241821;22;20408;-73
2022/12/09 00:39:03;;;;;;;24.10;21.90;;;-1.10;99.90;;;;;;6242022;23;20400;-74
2022/12/09 00:41:30;;;;;;;24.17;21.97;;;-1.00;99.90;;;;;;6241775;23;20467;-73
2022/12/09 00:43:57;;;;;;;21.87;19.87;;;-1.00;99.90;;;;;;6241203;23;20412;-73
2022/12/09 00:46:24;;;;;;;23.00;20.77;;;-1.00;99.90;;;;;;6240955;23;20414;-73
2022/12/09 00:48:50;;;;;;;21.27;19.43;;;-1.00;99.90;;;;;;6241482;23;20466;-72
2022/12/09 00:51:19;;;;;;;22.93;21.23;;;-1.00;99.90;;;;;;6241815;23;20769;-74
2022/12/09 00:53:52;;;;;;;24.17;22.30;;;-1.00;99.90;;;;;;6241915;23;20399;-73
2022/12/09 00:56:18;;;;;;;22.90;20.97;;;-1.10;99.90;;;;;;6242128;23;20395;-74
2022/12/09 00:58:45;;;;;;;23.53;21.10;;;-1.10;99.90;;;;;;6241755;23;20410;-73
2022/12/09 01:01:12;;;;;;;23.03;21.13;;;-1.10;99.90;;;;;;6241533;23;20737;-72
2022/12/09 01:03:39;;;;;;;23.67;21.53;;;-1.00;99.90;;;;;;6241297;23;20457;-72
2022/12/09 01:06:08;;;;;;;25.83;23.47;;;-1.10;99.90;;;;;;6241103;23;20410;-74
2022/12/09 01:08:35;;;;;;;24.30;22.17;;;-1.20;99.90;;;;;;6241518;23;20534;-73
2022/12/09 01:11:10;;;;;;;22.07;20.37;;;-1.30;99.90;;;;;;6241803;23;20762;-73
2022/12/09 01:13:37;;;;;;;24.30;22.27;;;-1.40;99.90;;;;;;6241415;23;20727;-73
2022/12/09 01:16:04;;;;;;;24.20;22.20;;;-1.40;99.90;;;;;;6241353;23;20919;-74
2022/12/09 01:18:30;;;;;;;23.57;21.37;;;-1.30;99.90;;;;;;6241642;23;20414;-73
2022/12/09 01:20:58;;;;;;;25.47;23.27;;;-1.30;99.90;;;;;;6241281;23;20404;-72
2022/12/09 01:23:25;;;;;;;22.40;20.80;;;-1.30;99.90;;;;;;6241244;23;20409;-72
2022/12/09 01:25:52;;;;;;;23.20;21.60;;;-1.40;99.90;;;;;;6240986;23;20468;-73
2022/12/09 01:28:20;;;;;;;23.53;21.93;;;-1.40;99.90;;;;;;6241796;23;20405;-73
2022/12/09 01:30:47;;;;;;;24.53;22.63;;;-1.40;99.90;;;;;;6241564;23;20439;-72
2022/12/09 01:33:13;;;;;;;23.53;21.57;;;-1.40;99.90;;;;;;6241446;23;20411;-73
2022/12/09 01:35:41;;;;;;;24.20;21.80;;;-1.40;99.90;;;;;;6240836;23;20525;-72
2022/12/09 07:37:59;;;;;;;29.80;27.30;;;-0.20;99.90;;;;;;6212638;23;20461;-76
2022/12/09 07:40:26;;;;;;;33.07;26.83;;;-0.20;99.90;;;;;;6209933;23;20940;-76
2022/12/09 07:42:53;;;;;;;26.90;24.50;;;-0.20;99.90;;;;;;6211263;23;20400;-76
2022/12/09 07:45:19;;;;;;;29.90;27.30;;;-0.10;99.90;;;;;;6212138;23;20409;-76
2022/12/09 07:47:46;;;;;;;27.17;24.97;;;0.00;99.90;;;;;;6211319;23;20410;-76
2022/12/09 07:50:13;;;;;;;27.53;25.03;;;0.00;99.90;;;;;;6211193;23;20757;-76
2022/12/09 07:52:40;;;;;;;25.70;23.70;;;0.10;99.90;;;;;;6211074;23;20526;-76
2022/12/09 07:55:09;;;;;;;26.90;24.70;;;0.20;99.90;;;;;;6210821;23;20411;-76
2022/12/09 07:57:36;;;;;;;24.57;22.47;;;0.30;99.90;;;;;;6211693;23;20400;-75
2022/12/09 08:00:05;;;;;;;26.70;24.27;;;0.30;99.90;;;;;;6211276;23;20939;-75
2022/12/09 08:02:31;;;;;;;24.53;22.73;;;0.40;99.90;;;;;;6210695;23;20409;-75
2022/12/09 08:04:58;;;;;;;25.03;23.13;;;0.50;99.90;;;;;;6211008;23;20412;-74
2022/12/09 08:07:46;;;;;;;25.47;23.43;;;0.50;99.90;;;;;;6210968;23;20496;-74
2022/12/09 08:10:15;;;;;;;26.20;24.07;;;0.50;99.90;;;;;;6208117;23;20451;-74
2022/12/09 08:12:41;;;;;;;25.17;22.93;;;0.70;99.90;;;;;;6209125;23;20453;-74
2022/12/09 08:15:09;;;;;;;26.37;24.27;;;0.80;99.90;;;;;;6209822;23;20734;-74
2022/12/09 08:17:35;;;;;;;24.37;22.33;;;0.80;99.90;;;;;;6210640;23;20412;-74
2022/12/09 08:20:02;;;;;;;24.53;22.43;;;0.90;99.90;;;;;;6208355;23;20487;-74
2022/12/09 08:22:29;;;;;;;24.47;22.17;;;1.00;99.90;;;;;;6210247;23;20435;-74
2022/12/09 08:24:56;;;;;;;24.67;22.50;;;1.10;99.90;;;;;;6210794;23;20409;-74
2022/12/09 08:27:24;;;;;;;25.13;22.80;;;1.10;99.90;;;;;;6211033;23;20528;-74
2022/12/09 08:29:51;;;;;;;23.90;22.03;;;1.20;99.90;;;;;;6210293;23;20440;-75
2022/12/09 08:32:17;;;;;;;24.37;22.27;;;1.30;99.90;;;;;;6210505;23;20493;-75
2022/12/09 08:34:45;;;;;;;23.27;21.37;;;1.50;99.90;;;;;;6210363;23;20425;-75
2022/12/09 08:37:12;;;;;;;24.93;22.70;;;1.50;99.90;;;;;;6210847;23;20419;-76
2022/12/09 08:39:38;;;;;;;24.27;21.83;;;1.50;99.90;;;;;;6211008;23;20408;-75
2022/12/09 08:42:05;;;;;;;24.23;21.20;;;1.60;99.90;;;;;;6210763;23;20423;-75
2022/12/09 08:44:33;;;;;;;24.23;22.13;;;1.60;99.90;;;;;;6210277;23;20422;-75
2022/12/09 08:47:00;;;;;;;23.40;21.30;;;1.70;99.90;;;;;;6206357;23;20407;-76
2022/12/09 08:49:28;;;;;;;23.10;21.10;;;1.90;99.90;;;;;;6209251;23;20487;-74
2022/12/09 08:51:54;;;;;;;20.63;18.90;;;2.10;99.90;;;;;;6209834;23;20409;-74
2022/12/09 08:54:21;;;;;;;22.03;20.30;;;2.20;99.90;;;;;;6210478;23;20573;-85
2022/12/09 08:56:52;;;;;;;21.37;19.77;;;2.30;99.90;;;;;;6209645;23;20409;-74
2022/12/09 08:59:19;;;;;;;22.13;20.30;;;2.40;99.90;;;;;;6207947;23;20421;-74
2022/12/09 09:01:47;;;;;;;22.07;20.37;;;2.40;99.90;;;;;;6208903;23;20445;-73
2022/12/09 09:04:17;;;;;;;23.27;21.30;;;2.50;99.90;;;;;;6209018;23;20686;-74
2022/12/09 09:06:47;;;;;;;23.03;21.07;;;2.60;99.90;;;;;;6208372;23;20991;-74
2022/12/09 09:09:14;;;;;;;21.60;19.83;;;2.50;99.90;;;;;;6209706;23;20485;-74
2022/12/09 09:11:42;;;;;;;23.53;21.43;;;2.60;99.90;;;;;;6209776;23;20442;-75
2022/12/09 09:14:11;;;;;;;21.47;19.87;;;2.50;99.90;;;;;;6210051;23;20423;-74
2022/12/09 09:16:39;;;;;;;24.73;22.27;;;2.40;99.90;;;;;;6209815;23;20739;-74
2022/12/09 09:19:08;;;;;;;22.27;20.30;;;2.50;99.90;;;;;;6210022;23;20418;-74
2022/12/09 09:21:35;;;;;;;23.73;21.63;;;2.50;99.90;;;;;;6209676;23;20751;-74
2022/12/09 09:24:02;;;;;;;22.60;20.80;;;2.70;99.90;;;;;;6213637;23;20418;-83
2022/12/09 09:26:28;;;;;;;22.80;20.97;;;2.80;99.90;;;;;;6212421;23;20405;-73
2022/12/09 09:28:56;;;;;;;22.90;20.93;;;3.00;99.90;;;;;;6209836;23;20493;-73
2022/12/09 09:31:24;;;;;;;22.80;20.90;;;3.10;99.90;;;;;;6207637;23;20959;-74
2022/12/09 09:33:51;;;;;;;24.03;21.00;;;3.10;99.90;;;;;;6210405;23;20404;-74
2022/12/09 09:36:22;;;;;;;23.17;21.03;;;3.30;99.90;;;;;;6209463;23;20908;-75
2022/12/09 09:38:54;;;;;;;25.13;22.70;;;3.20;99.90;;;;;;6209597;23;20712;-73
2022/12/09 09:41:33;;;;;;;24.03;19.80;;;3.30;99.90;;;;;;6210204;23;20495;-75
2022/12/09 09:44:00;;;;;;;21.17;19.40;;;3.20;99.90;;;;;;6209474;23;20879;-74
2022/12/09 09:46:39;;;;;;;22.37;20.57;;;3.20;99.90;;;;;;6209275;23;20405;-74
2022/12/09 09:49:10;;;;;;;22.50;20.53;;;3.10;99.90;;;;;;6209873;23;20938;-74
2022/12/09 09:51:39;;;;;;;22.70;20.40;;;3.10;99.90;;;;;;6210018;23;20428;-75
2022/12/09 09:54:08;;;;;;;22.27;20.17;;;3.10;99.90;;;;;;6209952;23;20419;-74
2022/12/09 09:56:39;;;;;;;22.23;20.10;;;3.10;99.90;;;;;;6209945;23;20537;-73
2022/12/09 09:59:18;;;;;;;24.30;22.00;;;3.00;99.90;;;;;;6210222;23;20405;-73
2022/12/09 10:01:50;;;;;;;21.63;19.40;;;2.90;99.90;;;;;;6209910;23;20389;-73
2022/12/09 10:04:25;;;;;;;24.27;21.70;;;2.90;99.90;;;;;;6209763;23;20402;-74
2022/12/09 10:06:59;;;;;;;23.00;20.90;;;2.80;99.90;;;;;;6210220;23;20399;-75
2022/12/09 10:09:36;;;;;;;23.23;20.93;;;2.90;99.90;;;;;;6209851;23;20395;-73
2022/12/09 10:12:17;;;;;;;23.83;21.50;;;3.00;99.90;;;;;;6209804;23;20469;-73
2022/12/09 10:14:52;;;;;;;22.00;20.10;;;3.20;99.90;;;;;;6209666;23;20397;-74
2022/12/09 10:17:27;;;;;;;23.83;21.53;;;3.20;99.90;;;;;;6209999;23;20395;-73
2022/12/09 10:19:58;;;;;;;24.30;22.00;;;3.20;99.90;;;;;;6211362;23;20395;-74
2022/12/09 10:22:31;;;;;;;21.57;19.57;;;3.30;99.90;;;;;;6211194;23;20854;-74
2022/12/09 10:25:03;;;;;;;21.83;19.93;;;3.20;99.90;;;;;;6211598;23;20405;-74
2022/12/09 10:27:33;;;;;;;22.77;20.87;;;3.20;99.90;;;;;;6211026;23;20799;-73
2022/12/09 10:30:05;;;;;;;22.87;20.60;;;3.40;99.90;;;;;;6211049;23;20401;-74
2022/12/09 10:32:34;;;;;;;22.10;20.10;;;3.50;99.90;;;;;;6211573;23;20450;-74
2022/12/09 10:35:02;;;;;;;22.77;20.80;;;3.50;99.90;;;;;;6211305;23;20428;-74
2022/12/09 10:37:32;;;;;;;25.20;20.50;;;3.40;99.90;;;;;;6211225;23;20730;-74
2022/12/09 10:40:13;;;;;;;22.73;20.77;;;3.50;99.90;;;;;;6211589;23;20400;-73
2022/12/09 10:45:25;;;;;;;22.60;20.50;;;3.70;99.90;;;;;;6145583;23;20385;-73
2022/12/09 10:47:52;;;;;;;23.90;21.47;;;3.60;99.90;;;;;;6212259;23;20405;-74
2022/12/09 10:50:31;;;;;;;24.07;21.57;;;3.70;99.90;;;;;;6211978;23;20447;-75
2022/12/09 10:53:06;;;;;;;23.57;21.40;;;3.60;99.90;;;;;;6211092;23;20638;-73
2022/12/09 10:55:36;;;;;;;25.03;22.70;;;3.70;99.90;;;;;;6212113;23;21007;-73
2022/12/09 10:58:16;;;;;;;24.43;22.37;;;3.80;99.90;;;;;;6211544;23;20419;-75
2022/12/09 11:00:43;;;;;;;23.17;21.17;;;3.70;99.90;;;;;;6211271;23;20385;-74
2022/12/09 11:03:30;;;;;;;23.30;20.90;;;3.50;99.90;;;;;;6211083;23;20405;-75
2022/12/09 11:06:00;;;;;;;25.97;22.83;;;3.50;99.90;;;;;;6211278;23;20719;-75
2022/12/09 11:08:28;;;;;;;25.90;23.10;;;3.50;99.90;;;;;;6211101;23;20732;-74
2022/12/09 11:10:55;;;;;;;25.47;22.83;;;3.60;99.90;;;;;;6210685;23;20450;-74
2022/12/09 11:13:35;;;;;;;24.20;21.90;;;3.50;99.90;;;;;;6211040;23;20412;-75
2022/12/09 11:16:03;;;;;;;22.33;20.07;;;3.50;99.90;;;;;;6210638;23;20467;-74
2022/12/09 11:18:34;;;;;;;23.87;21.57;;;3.50;99.90;;;;;;6211077;23;20482;-75
2022/12/09 11:21:04;;;;;;;23.77;21.07;;;3.70;99.90;;;;;;6210882;23;20420;-75
2022/12/09 11:23:33;;;;;;;27.70;24.90;;;3.90;99.90;;;;;;6210911;23;20475;-75
2022/12/09 11:26:02;;;;;;;24.57;22.17;;;3.80;99.90;;;;;;6210695;23;20415;-75
2022/12/09 11:28:31;;;;;;;24.37;22.17;;;3.80;99.90;;;;;;6211150;23;20482;-75
2022/12/09 11:31:00;;;;;;;24.27;21.97;;;3.70;99.90;;;;;;6210772;23;20810;-75
2022/12/09 11:33:30;;;;;;;24.83;22.30;;;3.70;99.90;;;;;;6211015;23;20427;-74
2022/12/09 11:36:02;;;;;;;27.50;24.57;;;3.70;99.90;;;;;;6210365;23;20438;-75
2022/12/09 11:38:38;;;;;;;24.17;22.03;;;3.70;99.90;;;;;;6210520;23;20445;-75
2022/12/09 11:42:12;;;;;;;24.90;22.57;;;3.80;99.90;;;;;;6211407;23;20391;-75
2022/12/09 11:44:20;;;;;;;25.23;22.73;;;3.80;99.90;;;;;;6210248;23;20409;-75
2022/12/09 11:46:56;;;;;;;28.40;21.67;;;4.20;99.90;;;;;;6210224;23;20393;-73
2022/12/09 11:49:23;;;;;;;26.40;23.93;;;4.30;99.90;;;;;;6210776;23;20407;-74
2022/12/09 11:52:01;;;;;;;24.33;22.17;;;4.50;99.90;;;;;;6210451;23;20447;-75
2022/12/09 11:54:34;;;;;;;25.57;23.40;;;4.50;99.90;;;;;;6210239;23;20396;-73
2022/12/09 11:57:03;;;;;;;28.47;25.97;;;4.60;99.90;;;;;;6210123;23;20393;-74
2022/12/09 11:59:33;;;;;;;25.03;22.70;;;4.80;99.90;;;;;;6210533;23;20424;-74
2022/12/09 12:02:05;;;;;;;25.27;22.70;;;4.90;99.90;;;;;;6210744;23;20424;-75
2022/12/09 12:04:37;;;;;;;25.50;22.97;;;4.80;99.90;;;;;;6210511;23;20389;-73
2022/12/09 12:07:11;;;;;;;27.00;24.27;;;4.80;99.90;;;;;;6210379;23;20393;-74
2022/12/09 12:09:44;;;;;;;27.23;24.60;;;4.70;99.90;;;;;;6211059;23;20403;-74
2022/12/09 12:12:18;;;;;;;25.70;23.30;;;4.60;99.90;;;;;;6210449;23;20432;-74
2022/12/09 12:14:45;;;;;;;24.73;22.43;;;4.70;99.90;;;;;;6209853;23;20402;-74
2022/12/09 12:17:19;;;;;;;26.67;23.80;;;4.50;99.90;;;;;;6209873;23;20920;-74
2022/12/09 12:19:50;;;;;;;24.87;22.70;;;4.40;99.90;;;;;;6209797;23;20390;-75
2022/12/09 12:22:40;;;;;;;27.23;24.43;;;4.40;99.90;;;;;;6210134;23;20396;-75
2022/12/09 12:25:24;;;;;;;26.63;24.07;;;4.50;99.90;;;;;;6210140;23;20718;-74
2022/12/09 12:28:21;;;;;;;27.00;24.43;;;4.50;99.90;;;;;;6210063;23;20395;-74
2022/12/09 12:30:55;;;;;;;25.07;22.63;;;4.50;99.90;;;;;;6210541;23;20432;-74
2022/12/09 12:33:41;;;;;;;27.13;24.23;;;4.40;99.90;;;;;;6210726;23;20471;-74
2022/12/09 12:36:18;;;;;;;28.77;25.77;;;4.40;99.90;;;;;;6210080;23;20432;-75
2022/12/09 12:38:59;;;;;;;26.53;24.07;;;4.40;99.90;;;;;;6207466;23;20436;-75
2022/12/09 12:41:37;;;;;;;25.87;23.47;;;4.40;99.90;;;;;;6209264;23;20385;-74
2022/12/09 12:47:12;;;;;;;25.57;23.50;;;4.40;99.90;;;;;;6210160;23;20461;-74
2022/12/09 12:50:05;;;;;;;29.50;26.70;;;4.40;99.90;;;;;;6209918;23;20388;-73
2022/12/09 12:52:44;;;;;;;27.10;24.40;;;4.20;99.90;;;;;;6209161;23;20444;-74
2022/12/09 12:55:22;;;;;;;27.37;24.70;;;4.00;99.90;;;;;;6209827;23;20488;-75
2022/12/09 12:58:00;;;;;;;24.93;22.60;;;4.00;99.90;;;;;;6210073;23;20413;-74
2022/12/09 13:00:35;;;;;;;26.60;24.17;;;4.10;99.90;;;;;;6209804;23;20425;-74
2022/12/09 13:03:11;;;;;;;27.70;25.00;;;4.10;99.90;;;;;;6209682;23;20396;-74
2022/12/09 13:05:42;;;;;;;27.60;24.77;;;4.10;99.90;;;;;;6210384;23;20389;-73
2022/12/09 13:08:14;;;;;;;27.70;25.17;;;4.00;99.90;;;;;;6210319;23;20419;-73
2022/12/09 13:10:43;;;;;;;27.73;24.80;;;4.10;99.90;;;;;;6210358;23;20721;-76
2022/12/09 13:13:20;;;;;;;29.47;26.37;;;4.10;99.90;;;;;;6209768;23;20903;-75
2022/12/09 13:15:51;;;;;;;29.17;26.33;;;4.10;99.90;;;;;;6209834;23;20397;-74
2022/12/09 13:18:21;;;;;;;26.27;23.90;;;4.30;99.90;;;;;;6209428;23;20858;-75
2022/12/09 13:20:50;;;;;;;40.07;25.50;;;3.90;99.90;;;;;;6209547;23;20857;-75
2022/12/09 13:23:39;;;;;;;26.60;24.00;;;4.10;99.90;;;;;;6209741;23;20404;-75
2022/12/09 13:26:24;;;;;;;30.43;27.60;;;4.10;99.90;;;;;;6209813;23;20413;-74
2022/12/09 13:28:58;;;;;;;30.63;27.43;;;4.00;99.90;;;;;;6210281;23;20392;-74
2022/12/09 13:31:29;;;;;;;28.53;25.93;;;3.90;99.90;;;;;;6209670;23;20438;-74
2022/12/09 13:34:04;;;;;;;31.07;26.23;;;3.90;99.90;;;;;;6209646;23;20393;-74
2022/12/09 13:36:37;;;;;;;28.73;26.20;;;3.90;99.90;;;;;;6209399;23;20786;-74
2022/12/09 13:39:04;;;;;;;28.43;25.43;;;3.90;99.90;;;;;;6210121;23;20439;-73
2022/12/09 13:44:33;;;;;;;29.10;26.03;;;3.80;99.90;;;;;;6209905;23;20388;-74
2022/12/09 13:47:27;;;;;;;28.40;25.60;;;3.70;99.90;;;;;;6210135;23;20775;-74
2022/12/09 13:50:01;;;;;;;27.20;24.70;;;3.80;99.90;;;;;;6210015;23;20402;-74
2022/12/09 13:52:40;;;;;;;30.20;27.47;;;3.70;99.90;;;;;;6209791;23;20628;-74
2022/12/09 13:55:34;;;;;;;31.03;27.97;;;3.70;99.90;;;;;;6212034;23;20392;-74
2022/12/09 13:58:18;;;;;;;28.17;25.17;;;3.80;99.90;;;;;;6211607;23;20396;-75
2022/12/09 14:00:59;;;;;;;30.30;27.20;;;3.90;99.90;;;;;;6211478;23;20900;-73
2022/12/09 14:03:30;;;;;;;29.30;26.40;;;3.90;99.90;;;;;;6211711;23;20396;-74
2022/12/09 14:06:00;;;;;;;30.27;27.37;;;4.10;99.90;;;;;;6211302;23;20883;-74
2022/12/09 14:08:30;;;;;;;32.80;29.40;;;4.00;99.90;;;;;;6211770;23;20405;-75
2022/12/09 14:10:58;;;;;;;33.17;30.07;;;4.00;99.90;;;;;;6211711;23;20396;-76
2022/12/09 14:13:29;;;;;;;33.83;30.50;;;3.90;99.90;;;;;;6212644;23;20415;-75
2022/12/09 14:16:33;;;;;;;34.07;31.07;;;3.80;99.90;;;;;;6213194;23;20399;-76
2022/12/09 14:19:44;;;;;;;34.03;30.70;;;3.70;99.90;;;;;;6212884;23;20949;-74
2022/12/09 14:22:33;;;;;;;34.90;31.70;;;3.60;99.90;;;;;;6214199;23;20401;-74
2022/12/09 14:25:57;;;;;;;38.10;34.60;;;3.60;99.90;;;;;;6216812;23;20404;-74
2022/12/09 14:28:49;;;;;;;39.10;35.50;;;3.50;99.90;;;;;;6202611;23;20888;-74
2022/12/09 14:31:56;;;;;;;39.73;36.00;;;3.50;99.90;;;;;;6217911;23;20431;-75
2022/12/09 14:34:46;;;;;;;37.87;34.23;;;3.50;99.90;;;;;;6214779;23;20966;-75
2022/12/09 14:37:50;;;;;;;39.17;35.47;;;3.60;99.90;;;;;;6213745;23;20419;-74
2022/12/09 14:40:32;;;;;;;41.43;37.47;;;3.50;99.90;;;;;;6213317;23;20479;-73
2022/12/09 14:43:07;;;;;;;40.63;36.70;;;3.60;99.90;;;;;;6212283;23;20493;-75
2022/12/09 14:45:42;;;;;;;41.70;37.60;;;3.60;99.90;;;;;;6212640;23;20387;-74
2022/12/09 14:48:16;;;;;;;38.80;35.23;;;3.60;99.90;;;;;;6211247;23;20385;-74
2022/12/09 14:50:42;;;;;;;42.53;38.57;;;3.70;99.90;;;;;;6211156;23;21044;-75
2022/12/09 14:53:24;;;;;;;45.03;40.63;;;3.60;99.90;;;;;;6211258;23;20441;-75
2022/12/09 14:55:51;;;;;;;43.03;38.93;;;3.70;99.90;;;;;;6211425;23;20399;-75
2022/12/09 14:58:20;;;;;;;42.40;38.40;;;3.70;99.90;;;;;;6210810;23;20915;-73
2022/12/09 15:00:57;;;;;;;44.63;40.40;;;3.60;99.90;;;;;;6210945;23;20407;-74
2022/12/09 15:03:25;;;;;;;46.73;42.13;;;3.60;99.90;;;;;;6211363;23;20393;-75
2022/12/09 15:06:00;;;;;;;45.90;41.63;;;3.50;99.90;;;;;;6210787;23;20408;-75
2022/12/09 15:08:28;;;;;;;45.23;41.00;;;3.50;99.90;;;;;;6210850;23;20404;-76
2022/12/09 15:10:55;;;;;;;45.00;41.00;;;3.50;99.90;;;;;;6210161;23;20409;-76
2022/12/09 15:13:24;;;;;;;46.83;42.33;;;3.40;99.90;;;;;;6211352;23;20443;-76
2022/12/09 15:15:51;;;;;;;49.60;44.80;;;3.30;99.90;;;;;;6210854;23;20438;-76
2022/12/09 15:18:21;;;;;;;52.07;46.93;;;3.40;99.90;;;;;;6210371;23;20418;-76
2022/12/09 15:20:52;;;;;;;50.30;45.00;;;3.20;99.90;;;;;;6210475;23;20433;-76
2022/12/09 15:23:22;;;;;;;50.67;45.63;;;3.20;99.90;;;;;;6211341;23;20387;-76
2022/12/09 15:25:51;;;;;;;49.33;44.60;;;3.40;99.90;;;;;;6210605;23;20411;-76
2022/12/09 15:28:19;;;;;;;54.40;48.93;;;3.30;99.90;;;;;;6210393;23;20903;-75
2022/12/09 15:30:53;;;;;;;51.73;46.37;;;3.30;99.90;;;;;;6210510;23;20420;-76
2022/12/09 15:33:20;;;;;;;53.33;47.73;;;3.30;99.90;;;;;;6211084;23;20454;-76
2022/12/09 15:35:53;;;;;;;49.17;43.93;;;3.30;99.90;;;;;;6210426;23;20435;-75
2022/12/09 15:38:21;;;;;;;52.30;46.73;;;3.30;99.90;;;;;;6210180;23;20439;-75
2022/12/09 15:43:29;;;;;;;51.20;45.90;;;3.20;99.90;;;;;;6210036;23;20379;-75
2022/12/09 15:45:56;;;;;;;53.70;48.30;;;3.20;99.90;;;;;;6210412;23;20455;-75
2022/12/09 15:48:27;;;;;;;54.57;48.90;;;3.20;99.90;;;;;;6210290;23;20435;-76
2022/12/09 15:51:00;;;;;;;52.63;47.47;;;3.20;99.90;;;;;;6209997;23;20401;-75
2022/12/09 15:53:30;;;;;;;53.47;47.90;;;3.20;99.90;;;;;;6210219;23;20424;-77
2022/12/09 15:56:01;;;;;;;52.50;47.30;;;3.30;99.90;;;;;;6209953;23;20396;-76
2022/12/09 15:58:33;;;;;;;55.63;49.80;;;3.40;99.90;;;;;;6210262;23;20762;-76
2022/12/09 16:01:01;;;;;;;54.97;49.47;;;3.30;99.90;;;;;;6210467;23;20396;-76
2022/12/09 16:03:31;;;;;;;53.87;48.37;;;3.30;99.90;;;;;;6210725;23;20724;-75
2022/12/09 16:06:02;;;;;;;59.37;51.90;;;3.30;99.90;;;;;;6209233;23;20413;-75
2022/12/09 16:08:34;;;;;;;52.23;46.80;;;3.20;99.90;;;;;;6210204;23;20400;-76
2022/12/09 16:11:01;;;;;;;52.57;46.90;;;3.20;99.90;;;;;;6210742;23;20405;-75
2022/12/09 16:13:28;;;;;;;55.10;48.00;;;3.10;99.90;;;;;;6209883;23;20802;-75
2022/12/09 16:15:56;;;;;;;55.00;49.03;;;3.10;99.90;;;;;;6209492;23;20411;-75
2022/12/09 16:18:25;;;;;;;54.73;48.80;;;3.10;99.90;;;;;;6210098;23;20412;-75
2022/12/09 16:20:59;;;;;;;54.40;48.50;;;3.00;99.90;;;;;;6209365;23;20414;-75
2022/12/09 16:23:28;;;;;;;54.70;47.33;;;3.10;99.90;;;;;;6210054;23;20394;-75
2022/12/09 16:25:58;;;;;;;53.80;47.90;;;3.00;99.90;;;;;;6210086;23;20497;-74
2022/12/09 16:28:28;;;;;;;56.27;48.47;;;3.10;99.90;;;;;;6210367;23;20395;-74
2022/12/09 16:30:58;;;;;;;54.87;49.07;;;3.10;99.90;;;;;;6210299;23;20499;-74
2022/12/09 16:33:25;;;;;;;54.67;48.43;;;3.10;99.90;;;;;;6209974;23;20436;-74
2022/12/09 16:36:02;;;;;;;60.83;49.83;;;3.10;99.90;;;;;;6210408;23;20518;-74
2022/12/09 16:38:31;;;;;;;60.40;50.57;;;3.10;99.90;;;;;;6209739;23;20508;-74
2022/12/09 16:41:01;;;;;;;56.13;49.90;;;3.10;99.90;;;;;;6210081;23;20936;-74
2022/12/09 16:43:29;;;;;;;58.43;50.90;;;3.10;99.90;;;;;;6209710;23;20404;-74
2022/12/09 16:45:58;;;;;;;63.90;49.50;;;3.10;99.90;;;;;;6210150;23;20410;-74
2022/12/09 16:48:26;;;;;;;60.20;49.03;;;3.20;99.90;;;;;;6209721;23;20916;-74
2022/12/09 16:50:57;;;;;;;57.20;50.83;;;3.30;99.90;;;;;;6210375;23;20416;-74
2022/12/09 16:53:28;;;;;;;58.63;50.37;;;3.20;99.90;;;;;;6210591;23;20763;-74
2022/12/09 16:55:59;;;;;;;53.40;46.77;;;3.30;99.90;;;;;;6209748;23;20504;-74
2022/12/09 16:58:26;;;;;;;59.33;48.63;;;3.30;99.90;;;;;;6210022;23;20418;-79
2022/12/09 17:00:53;;;;;;;54.40;48.27;;;3.30;99.90;;;;;;6210526;23;20404;-73
2022/12/09 17:03:28;;;;;;;59.67;48.97;;;3.30;99.90;;;;;;6210419;23;20499;-73
2022/12/09 17:05:55;;;;;;;54.83;48.53;;;3.40;99.90;;;;;;6210744;23;20391;-72
2022/12/09 17:08:21;;;;;;;53.93;47.60;;;3.40;99.90;;;;;;6210671;23;20753;-74
2022/12/09 17:10:48;;;;;;;58.63;48.80;;;3.40;99.90;;;;;;6210307;23;20844;-73
2022/12/09 17:13:16;;;;;;;54.97;47.33;;;3.40;99.90;;;;;;6210448;23;20984;-72
2022/12/09 17:15:43;;;;;;;60.13;49.20;;;3.40;99.90;;;;;;6210675;23;20417;-73
2022/12/09 17:18:10;;;;;;;59.30;51.70;;;3.40;99.90;;;;;;6210600;23;20722;-74
2022/12/09 17:20:38;;;;;;;60.77;49.37;;;3.30;99.90;;;;;;6210844;23;20400;-74
2022/12/09 17:23:05;;;;;;;59.23;49.07;;;3.90;99.90;;;;;;6210547;23;20419;-74
2022/12/09 17:25:32;;;;;;;53.00;45.27;;;3.50;99.90;;;;;;6210909;23;20447;-74
2022/12/09 17:28:01;;;;;;;54.30;48.50;;;3.50;99.90;;;;;;6210462;23;20496;-74
2022/12/09 17:30:29;;;;;;;55.07;48.37;;;3.50;99.90;;;;;;6210585;23;20475;-74
2022/12/09 17:32:55;;;;;;;52.73;47.03;;;3.60;99.90;;;;;;6210610;23;20449;-73
2022/12/09 17:35:22;;;;;;;54.93;47.30;;;3.50;99.90;;;;;;6210072;23;20429;-74
2022/12/09 17:37:49;;;;;;;58.40;49.37;;;3.50;99.90;;;;;;6209707;23;20448;-74
2022/12/09 17:40:16;;;;;;;59.20;47.30;;;3.40;99.90;;;;;;6210574;23;20413;-73
2022/12/09 17:42:43;;;;;;;56.77;50.67;;;3.30;99.90;;;;;;6210455;23;20411;-72
2022/12/09 17:45:09;;;;;;;59.23;49.00;;;3.40;99.90;;;;;;6210418;23;20438;-73
2022/12/09 17:47:38;;;;;;;60.20;49.70;;;3.40;99.90;;;;;;6210570;23;20482;-73
2022/12/09 17:50:05;;;;;;;56.73;50.50;;;3.50;99.90;;;;;;6210324;23;20499;-73
2022/12/09 17:52:31;;;;;;;69.63;51.53;;;3.40;99.90;;;;;;6210016;23;20543;-73
2022/12/09 17:54:58;;;;;;;58.03;47.70;;;3.40;99.90;;;;;;6210527;23;20424;-73
2022/12/09 17:57:25;;;;;;;64.53;49.67;;;3.40;99.90;;;;;;6210174;23;20658;-74
2022/12/09 17:59:52;;;;;;;70.80;48.60;;;3.50;99.90;;;;;;6210482;23;20959;-73
2022/12/09 18:02:18;;;;;;;56.40;49.20;;;3.50;99.90;;;;;;6210446;23;20419;-73
2022/12/09 18:04:47;;;;;;;53.37;46.30;;;3.50;99.90;;;;;;6210812;23;20415;-73
2022/12/09 18:07:13;;;;;;;58.67;48.93;;;3.50;99.90;;;;;;6211087;23;20527;-73
2022/12/09 18:09:40;;;;;;;65.90;49.33;;;3.50;99.90;;;;;;6210493;23;20413;-73
2022/12/09 18:12:07;;;;;;;55.63;47.97;;;3.50;99.90;;;;;;6210080;23;20405;-73
2022/12/09 18:14:34;;;;;;;61.53;49.60;;;3.60;99.90;;;;;;6210195;23;20844;-73
2022/12/09 18:17:01;;;;;;;57.33;48.80;;;3.60;99.90;;;;;;6209082;23;20858;-72
2022/12/09 18:19:29;;;;;;;57.70;50.63;;;3.60;99.90;;;;;;6210052;23;20419;-73
2022/12/09 18:21:57;;;;;;;59.80;50.57;;;3.70;99.90;;;;;;6207598;23;20524;-74
2022/12/09 18:24:23;;;;;;;56.40;46.93;;;3.70;99.90;;;;;;6210212;23;20391;-73
2022/12/09 18:26:50;;;;;;;53.97;48.13;;;3.70;99.90;;;;;;6210314;23;20415;-73
2022/12/09 18:29:17;;;;;;;56.60;47.77;;;3.70;99.90;;;;;;6207045;23;20407;-74
2022/12/09 18:31:44;;;;;;;58.60;48.00;;;3.60;99.90;;;;;;6209670;23;20643;-74
2022/12/09 18:34:11;;;;;;;58.50;45.90;;;3.70;99.90;;;;;;6208684;23;20459;-73
2022/12/09 18:36:38;;;;;;;64.40;49.30;;;3.80;99.90;;;;;;6209149;23;20471;-73
2022/12/09 18:39:06;;;;;;;56.10;46.40;;;3.90;99.90;;;;;;6209046;23;20441;-72
2022/12/09 18:41:33;;;;;;;55.57;47.30;;;3.90;99.90;;;;;;6211280;23;20482;-72
2022/12/09 18:44:03;;;;;;;61.67;50.37;;;3.80;99.90;;;;;;6210643;23;20498;-73
2022/12/09 18:46:33;;;;;;;51.13;44.73;;;3.70;99.90;;;;;;6211175;23;20405;-73
2022/12/09 18:49:03;;;;;;;55.70;47.60;;;3.80;99.90;;;;;;6211108;23;20408;-73
2022/12/09 18:51:31;;;;;;;53.07;42.63;;;3.90;99.90;;;;;;6211011;23;20393;-73
2022/12/09 18:53:59;;;;;;;50.97;43.40;;;3.90;99.90;;;;;;6210581;23;20502;-73
2022/12/09 18:56:28;;;;;;;53.80;43.93;;;3.80;99.90;;;;;;6210634;23;20405;-73
2022/12/09 18:58:56;;;;;;;59.47;46.77;;;3.80;99.90;;;;;;6210761;23;20751;-73
2022/12/09 19:01:24;;;;;;;56.73;45.27;;;3.70;99.90;;;;;;6211609;23;20415;-73
2022/12/09 19:03:53;;;;;;;61.33;46.93;;;3.60;99.90;;;;;;6211631;23;20414;-73
2022/12/09 19:06:22;;;;;;;57.13;45.97;;;3.60;99.90;;;;;;6211152;23;20896;-73
2022/12/09 19:08:52;;;;;;;63.47;45.27;;;3.70;99.90;;;;;;6211276;23;20418;-73